Flight Track Log - Related Links

Times and Time Zones

All times are in EDT time to prevent confusion due to time zone crossing. See the FLG4057 flight status page for this flight to view local times or setup timezone preferences in your user account.


Time Position Orientation Groundspeed Altitude Reporting Facility
EDT Latitude Longitude Course Direction KTS MPH feet Rate Location/Type
Thu 05:08:16 PM 44.8667 -93.1500 65° Northeast 170 196 2,400  Level Minneapolis TRACON
Thu 05:08:50 PM 44.8686 -93.1139 86° East 190 219 3,200 1,682 Climbing Minneapolis Center
Thu 05:10:00 PM 44.9794 -92.8234 69° East  Level FlightAware Approximate
Thu 05:10:03 PM 44.8811 -93.0278 78° East 252 290 5,400  Level Minneapolis Center
Thu 05:11:00 PM 45.0148 -92.6905 69° East  Level FlightAware Approximate
Thu 05:11:17 PM 44.9439 -92.9214 50° Northeast 295 339 8,200  Level Minneapolis Center
Thu 05:12:00 PM 45.0547 -92.5601 66° East  Level FlightAware Approximate
Thu 05:12:19 PM 45.0086 -92.8075 51° Northeast 310 357 10,900  Level Minneapolis Center
Thu 05:13:00 PM 45.0955 -92.4301 65° Northeast  Level FlightAware Approximate
Thu 05:13:20 PM 45.0692 -92.7008 51° Northeast 346 398 12,300  Level Minneapolis Center
Thu 05:14:21 PM 45.1336 -92.5878 51° Northeast 371 427 13,800 1,756 Climbing Minneapolis Center
Thu 05:15:23 PM 45.2117 -92.4489 51° Northeast 376 433 15,900 1,805 Climbing Minneapolis Center
Thu 05:16:24 PM 45.2536 -92.3214 65° Northeast 369 425 17,500 1,463 Climbing Minneapolis Center
Thu 05:17:26 PM 45.2217 -92.1783 108° East 380 437 18,900 667 Climbing Minneapolis Center
Thu 05:18:39 PM 45.1858 -92.0319 109° East 392 451 19,000 44 Climbing Minneapolis Center
Thu 05:19:41 PM 45.1406 -91.8461 109° East 412 474 19,000  Level Minneapolis Center
Thu 05:20:54 PM 45.1017 -91.6897 109° East 421 484 19,000  Level Minneapolis Center
Thu 05:21:56 PM 45.0544 -91.5033 110° East 421 484 19,000  Level Minneapolis Center
Thu 05:22:57 PM 45.0153 -91.3461 109° East 425 489 19,000  Level Minneapolis Center
Thu 05:23:59 PM 44.9675 -91.1603 110° East 422 486 19,000  Level Minneapolis Center
Thu 05:25:00 PM 44.9278 -91.0050 110° East 421 484 19,000  Level Minneapolis Center
Thu 05:26:01 PM 44.8931 -90.8678 110° East 420 483 19,000  Level Minneapolis Center
Thu 05:27:03 PM 44.8531 -90.7122 110° East 423 487 19,000  Level Minneapolis Center
Thu 05:28:04 PM 44.8094 -90.5400 110° East 424 488 19,000 -49 Level Minneapolis Center
Thu 05:29:05 PM 44.7628 -90.3672 111° Southeast 422 486 18,900 -683 Descending Minneapolis Center
Thu 05:30:07 PM 44.7242 -90.2203 110° East 423 487 17,600 -1,366 Descending Minneapolis Center
Thu 05:31:08 PM 44.6842 -90.0703 111° Southeast 397 457 16,100 -1,328 Descending Minneapolis Center
Thu 05:32:09 PM 44.6550 -89.9594 110° East 382 440 14,900 -1,377 Descending Minneapolis Center
Thu 05:33:10 PM 44.6172 -89.8178 110° East 373 429 13,300 -1,659 Descending Minneapolis Center
Thu 05:34:12 PM 44.5761 -89.6642 111° Southeast 350 403 11,500 -1,463 Descending Minneapolis Center
Thu 05:35:13 PM 44.5453 -89.5386 109° East 328 377 10,300 -1,463 Descending Minneapolis Center
Thu 05:36:15 PM 44.5264 -89.4256 103° East 288 331 8,500 -1,610 Descending Minneapolis Center
Thu 05:37:16 PM 44.4978 -89.3289 113° Southeast 282 325 7,000 -1,475 Descending Minneapolis Center
Thu 05:38:17 PM 44.4694 -89.2289 112° Southeast 265 305 5,500 -976 Descending Minneapolis Center
Thu 05:39:19 PM 44.4414 -89.1319 112° Southeast 260 299 5,000 -244 Descending Minneapolis Center
Thu 05:40:20 PM 44.4200 -89.0603 113° Southeast 271 312 5,000 -492 Level Minneapolis Center
Thu 05:41:21 PM 44.3878 -88.9381 110° East 264 304 4,000 -984 Descending Minneapolis Center
Thu 05:42:22 PM 44.3669 -88.8431 107° East 260 299 3,000 -488 Descending Minneapolis Center
Thu 05:43:24 PM 44.3481 -88.7528 106° East 253 291 3,000  Level Minneapolis Center
Thu 05:44:25 PM 44.3464 -88.6697 92° East 226 260 3,000 -49 Level Minneapolis Center
Thu 05:45:27 PM 44.3508 -88.5919 85° East 213 245 2,900 -97 Descending Minneapolis Center

Login

Don't have an account? Register now (free) for customized features, flight alerts, and more!